Time;durP1;ratioP1;P1;durP2;ratioP2;P2;SDS_P1;SDS_P2;PMS_P1;PMS_P2;Temp;Humidity;BMP_temperature;BMP_pressure;BME280_temperature;BME280_humidity;BME280_pressure;Samples;Min_cycle;Max_cycle;Signal;HPM_P1;HPM_P2
2022/11/03 00:00:09;;;;;;;0.90;0.57;;;;;;;;;;5043616;28;20651;-87
2022/11/03 00:02:38;;;;;;;0.50;0.40;;;;;;;;;;5040979;28;20459;-86
2022/11/03 00:06:03;;;;;;;0.30;0.30;;;;;;;;;;5012412;28;20409;-87
2022/11/03 00:07:50;;;;;;;0.45;0.40;;;;;;;;;;5007903;28;20029;-88
2022/11/03 00:10:16;;;;;;;0.40;0.40;;;;;;;;;;5025865;28;20037;-86
2022/11/03 00:12:43;;;;;;;0.70;0.57;;;;;;;;;;5012962;28;20372;-87
2022/11/03 00:15:09;;;;;;;0.57;0.30;;;;;;;;;;5003755;28;20455;-90
2022/11/03 00:17:35;;;;;;;0.40;0.30;;;;;;;;;;5004284;28;20037;-88
2022/11/03 00:20:01;;;;;;;0.30;0.30;;;;;;;;;;5021937;28;20120;-89
2022/11/03 00:22:28;;;;;;;0.30;0.30;;;;;;;;;;5015521;28;20056;-88
2022/11/03 00:24:54;;;;;;;0.47;0.32;;;;;;;;;;5010858;28;20029;-88
2022/11/03 00:27:21;;;;;;;0.47;0.30;;;;;;;;;;5015979;28;20028;-89
2022/11/03 00:29:54;;;;;;;0.38;0.38;;;;;;;;;;5031065;28;20083;-89
2022/11/03 00:32:21;;;;;;;0.55;0.55;;;;;;;;;;5009410;28;20511;-89
2022/11/03 00:34:48;;;;;;;0.60;0.60;;;;;;;;;;5008483;28;20044;-87
2022/11/03 00:37:14;;;;;;;0.40;0.40;;;;;;;;;;5024591;28;20040;-84
2022/11/03 00:39:40;;;;;;;0.60;0.60;;;;;;;;;;5025423;28;20032;-86
2022/11/03 00:42:06;;;;;;;0.73;0.73;;;;;;;;;;4996087;28;20021;-87
2022/11/03 00:44:33;;;;;;;1.00;0.90;;;;;;;;;;5028968;28;20033;-85
2022/11/03 00:46:59;;;;;;;1.00;1.00;;;;;;;;;;4988703;28;20159;-86
2022/11/03 00:49:25;;;;;;;1.02;0.93;;;;;;;;;;5011271;28;20102;-86
2022/11/03 00:51:51;;;;;;;1.20;1.20;;;;;;;;;;5007742;28;20411;-87
2022/11/03 00:54:17;;;;;;;1.40;1.30;;;;;;;;;;5010635;28;20048;-87
2022/11/03 00:56:44;;;;;;;1.30;1.20;;;;;;;;;;5023252;28;20037;-87
2022/11/03 00:59:10;;;;;;;1.45;1.35;;;;;;;;;;5008583;28;20040;-87
2022/11/03 01:01:39;;;;;;;1.00;1.00;;;;;;;;;;5022152;28;20527;-86
2022/11/03 01:06:53;;;;;;;0.60;0.60;;;;;;;;;;5028823;28;20029;-91
2022/11/03 01:09:20;;;;;;;2.50;0.88;;;;;;;;;;5043744;28;20033;-90
2022/11/03 01:11:55;;;;;;;0.80;0.80;;;;;;;;;;5012174;28;20029;-88
2022/11/03 01:14:22;;;;;;;0.75;0.75;;;;;;;;;;5007727;28;20640;-89
2022/11/03 01:16:48;;;;;;;0.70;0.70;;;;;;;;;;5008048;28;20381;-86
2022/11/03 01:19:14;;;;;;;1.02;0.95;;;;;;;;;;5012172;28;20037;-85
2022/11/03 01:21:40;;;;;;;0.80;0.80;;;;;;;;;;5025236;28;20032;-84
2022/11/03 01:24:07;;;;;;;0.90;0.90;;;;;;;;;;4995097;28;20121;-86
2022/11/03 01:26:33;;;;;;;1.05;1.05;;;;;;;;;;4995238;28;20033;-87
2022/11/03 01:29:00;;;;;;;1.23;1.02;;;;;;;;;;5011126;28;20041;-86
2022/11/03 01:31:26;;;;;;;1.00;1.00;;;;;;;;;;5022610;28;20388;-85
2022/11/03 01:33:53;;;;;;;1.30;1.30;;;;;;;;;;5014399;28;20434;-87
2022/11/03 01:36:20;;;;;;;1.20;1.20;;;;;;;;;;5063106;28;20025;-87
2022/11/03 01:38:46;;;;;;;2.10;1.40;;;;;;;;;;5003262;28;20123;-86
2022/11/03 01:41:17;;;;;;;1.20;1.20;;;;;;;;;;5007866;28;20123;-84
2022/11/03 01:43:44;;;;;;;1.40;1.30;;;;;;;;;;4989944;28;20542;-85
2022/11/03 01:46:10;;;;;;;1.42;1.33;;;;;;;;;;5007948;28;20044;-82
2022/11/03 01:48:39;;;;;;;1.50;1.40;;;;;;;;;;5011024;28;20463;-84
2022/11/03 01:51:06;;;;;;;1.52;1.48;;;;;;;;;;4999169;28;20127;-84
2022/11/03 01:53:33;;;;;;;1.40;1.40;;;;;;;;;;5025784;28;20079;-84
2022/11/03 01:56:00;;;;;;;1.60;1.50;;;;;;;;;;5010734;28;20493;-83
2022/11/03 01:58:29;;;;;;;1.33;1.33;;;;;;;;;;5028435;28;20033;-86
2022/11/03 02:01:00;;;;;;;1.60;1.50;;;;;;;;;;4994995;28;20032;-83
2022/11/03 02:03:28;;;;;;;1.27;1.27;;;;;;;;;;5026241;28;20043;-85
2022/11/03 02:05:55;;;;;;;1.40;1.30;;;;;;;;;;5031411;28;20037;-83
2022/11/03 02:08:44;;;;;;;1.42;1.40;;;;;;;;;;5014368;28;20477;-84
2022/11/03 02:13:59;;;;;;;1.30;1.30;;;;;;;;;;5028872;28;20039;-85
2022/11/03 02:16:26;;;;;;;1.25;1.25;;;;;;;;;;5043474;28;20029;-85
2022/11/03 02:18:53;;;;;;;1.27;1.27;;;;;;;;;;5025544;28;20047;-85
2022/11/03 02:21:22;;;;;;;1.30;1.30;;;;;;;;;;5044892;28;20028;-86
2022/11/03 02:23:53;;;;;;;1.30;1.20;;;;;;;;;;5050662;28;20033;-86
2022/11/03 02:26:20;;;;;;;1.40;1.30;;;;;;;;;;5020087;28;20029;-87
2022/11/03 02:28:46;;;;;;;1.90;1.80;;;;;;;;;;4999455;28;20108;-86
2022/11/03 02:31:12;;;;;;;1.55;1.50;;;;;;;;;;4998824;28;20495;-86
2022/11/03 02:33:58;;;;;;;1.42;1.40;;;;;;;;;;5009454;28;20181;-86
2022/11/03 02:36:42;;;;;;;1.65;1.50;;;;;;;;;;4917818;29;20050;-86
2022/11/03 02:39:12;;;;;;;1.52;1.38;;;;;;;;;;4914175;29;20083;-89
2022/11/03 02:41:39;;;;;;;1.73;1.63;;;;;;;;;;4934152;29;20039;-91
2022/11/03 02:44:08;;;;;;;1.50;1.40;;;;;;;;;;4918833;29;20105;-90
2022/11/03 02:46:34;;;;;;;1.38;1.30;;;;;;;;;;4931692;29;20035;-89
2022/11/03 02:49:00;;;;;;;1.25;1.20;;;;;;;;;;4944622;29;20525;-89
2022/11/03 02:51:27;;;;;;;1.10;1.10;;;;;;;;;;4911417;29;20035;-91
2022/11/03 02:54:16;;;;;;;0.93;0.80;;;;;;;;;;4949533;29;20070;-88
2022/11/03 02:56:49;;;;;;;0.77;0.77;;;;;;;;;;4955669;29;20121;-88
2022/11/03 02:59:18;;;;;;;0.60;0.60;;;;;;;;;;4924070;29;20383;-86
2022/11/03 03:01:51;;;;;;;0.70;0.70;;;;;;;;;;4932555;29;20587;-86
2022/11/03 03:04:20;;;;;;;0.60;0.60;;;;;;;;;;4943338;28;20515;-84
2022/11/03 03:06:49;;;;;;;0.60;0.60;;;;;;;;;;4944554;29;20031;-86
2022/11/03 03:09:19;;;;;;;1.17;0.50;;;;;;;;;;4928460;29;20039;-85
2022/11/03 03:11:47;;;;;;;0.70;0.50;;;;;;;;;;4932342;29;20208;-87
2022/11/03 03:14:20;;;;;;;1.65;0.40;;;;;;;;;;4995092;28;20041;-88
2022/11/03 03:16:47;;;;;;;1.35;0.40;;;;;;;;;;5009638;28;20407;-79
2022/11/03 03:19:36;;;;;;;0.38;0.30;;;;;;;;;;5007482;28;20094;-80
2022/11/03 03:22:10;;;;;;;0.30;0.30;;;;;;;;;;4990012;28;20044;-79
2022/11/03 03:24:40;;;;;;;0.40;0.30;;;;;;;;;;5007077;28;20576;-79
2022/11/03 03:27:10;;;;;;;1.50;0.40;;;;;;;;;;5013627;28;20501;-79
2022/11/03 03:29:39;;;;;;;0.28;0.28;;;;;;;;;;5045224;28;20051;-78
2022/11/03 03:32:07;;;;;;;0.50;0.40;;;;;;;;;;5025112;28;20134;-78
2022/11/03 03:34:34;;;;;;;1.00;0.30;;;;;;;;;;5022816;28;20037;-80
2022/11/03 03:37:00;;;;;;;1.10;0.30;;;;;;;;;;5008808;28;20040;-88
2022/11/03 03:39:30;;;;;;;0.98;0.47;;;;;;;;;;5045503;28;20083;-88
2022/11/03 03:41:57;;;;;;;0.30;0.30;;;;;;;;;;5043351;28;20522;-86
2022/11/03 03:44:24;;;;;;;0.40;0.40;;;;;;;;;;5032013;28;20449;-86
2022/11/03 03:47:00;;;;;;;0.43;0.35;;;;;;;;;;5042637;28;20033;-81
2022/11/03 03:49:26;;;;;;;0.40;0.40;;;;;;;;;;5024522;28;20037;-81
2022/11/03 03:51:52;;;;;;;0.45;0.40;;;;;;;;;;5010829;28;20056;-80
2022/11/03 03:54:19;;;;;;;0.50;0.50;;;;;;;;;;5024572;28;20194;-81
2022/11/03 03:56:45;;;;;;;0.40;0.40;;;;;;;;;;5043516;28;20029;-81
2022/11/03 03:59:11;;;;;;;0.50;0.40;;;;;;;;;;5042606;28;20578;-82
2022/11/03 04:01:37;;;;;;;1.65;0.30;;;;;;;;;;5024983;28;20125;-83
2022/11/03 04:04:04;;;;;;;0.55;0.40;;;;;;;;;;5007227;28;20061;-84
2022/11/03 04:06:30;;;;;;;0.65;0.52;;;;;;;;;;5042633;28;20095;-83
2022/11/03 04:08:56;;;;;;;0.50;0.50;;;;;;;;;;5042783;28;20062;-81
2022/11/03 04:22:24;;;;;;;0.40;0.40;;;;;;;;;;5042948;28;20637;-87
2022/11/03 04:24:51;;;;;;;0.40;0.40;;;;;;;;;;5024183;28;20029;-83
2022/11/03 04:27:28;;;;;;;1.00;0.50;;;;;;;;;;5012881;28;20029;-86
2022/11/03 04:29:59;;;;;;;0.50;0.50;;;;;;;;;;5022855;28;20094;-86
2022/11/03 04:32:25;;;;;;;1.30;0.50;;;;;;;;;;5025039;28;20044;-83
2022/11/03 04:34:52;;;;;;;0.47;0.47;;;;;;;;;;5023085;28;20558;-83
2022/11/03 04:37:18;;;;;;;0.70;0.70;;;;;;;;;;5043283;28;20671;-87
2022/11/03 04:39:44;;;;;;;0.60;0.60;;;;;;;;;;5023499;28;20091;-86
2022/11/03 04:42:18;;;;;;;0.80;0.80;;;;;;;;;;5040644;28;20025;-85
2022/11/03 04:44:45;;;;;;;0.70;0.70;;;;;;;;;;5041846;28;20116;-85
2022/11/03 04:47:12;;;;;;;2.75;0.65;;;;;;;;;;5009682;28;20112;-82
2022/11/03 04:49:38;;;;;;;0.60;0.60;;;;;;;;;;5022746;28;20475;-84
2022/11/03 04:52:16;;;;;;;1.00;1.00;;;;;;;;;;5022215;28;20073;-83
2022/11/03 04:54:43;;;;;;;0.98;0.80;;;;;;;;;;5022679;28;20044;-83
2022/11/03 04:57:13;;;;;;;0.93;0.93;;;;;;;;;;5023247;28;20037;-83
2022/11/03 04:59:40;;;;;;;3.38;1.05;;;;;;;;;;5027990;28;20155;-82
2022/11/03 05:02:11;;;;;;;1.05;1.00;;;;;;;;;;5040321;28;20025;-82
2022/11/03 05:04:37;;;;;;;1.33;1.23;;;;;;;;;;5040118;28;20079;-82
2022/11/03 05:07:12;;;;;;;1.08;1.08;;;;;;;;;;4991196;28;20033;-79
2022/11/03 05:09:38;;;;;;;1.30;1.20;;;;;;;;;;5023441;28;20061;-79
2022/11/03 05:12:05;;;;;;;1.20;1.10;;;;;;;;;;5041053;28;20029;-79
2022/11/03 05:14:31;;;;;;;1.40;1.30;;;;;;;;;;5021784;28;20032;-80
2022/11/03 05:16:59;;;;;;;2.45;1.65;;;;;;;;;;5010588;28;20096;-81
2022/11/03 05:19:39;;;;;;;1.10;1.10;;;;;;;;;;5022598;28;20450;-81
2022/11/03 05:22:12;;;;;;;1.63;1.50;;;;;;;;;;5004502;28;20484;-84
2022/11/03 05:24:38;;;;;;;1.35;1.23;;;;;;;;;;5009622;28;20033;-81
2022/11/03 05:27:05;;;;;;;1.75;1.40;;;;;;;;;;5010893;28;20574;-84
2022/11/03 05:29:36;;;;;;;1.20;1.20;;;;;;;;;;4995178;28;20029;-83
2022/11/03 05:32:02;;;;;;;1.30;1.30;;;;;;;;;;5027492;28;20091;-83
2022/11/03 05:34:55;;;;;;;1.45;1.35;;;;;;;;;;5039491;28;20037;-82
2022/11/03 05:37:41;;;;;;;1.85;1.02;;;;;;;;;;5010538;28;20167;-80
2022/11/03 05:40:17;;;;;;;1.23;1.13;;;;;;;;;;5043009;28;20033;-82
2022/11/03 05:42:44;;;;;;;1.25;1.25;;;;;;;;;;5024100;28;20056;-82
2022/11/03 05:45:20;;;;;;;1.40;1.30;;;;;;;;;;5039110;28;20527;-82
2022/11/03 05:47:47;;;;;;;1.38;1.30;;;;;;;;;;5023831;28;20504;-82
2022/11/03 05:50:19;;;;;;;2.03;1.30;;;;;;;;;;5004832;28;20053;-82
2022/11/03 05:52:46;;;;;;;1.33;1.23;;;;;;;;;;5005905;28;20030;-83
2022/11/03 05:55:20;;;;;;;1.30;1.30;;;;;;;;;;5011396;28;20143;-84
2022/11/03 05:57:47;;;;;;;1.70;1.38;;;;;;;;;;4995196;28;20033;-84
2022/11/03 06:00:31;;;;;;;1.20;1.20;;;;;;;;;;4994482;28;20033;-83
2022/11/03 06:02:58;;;;;;;1.42;1.33;;;;;;;;;;5021938;28;20074;-84
2022/11/03 06:05:25;;;;;;;1.25;1.25;;;;;;;;;;5008173;28;20120;-82
2022/11/03 06:07:53;;;;;;;1.45;1.35;;;;;;;;;;5009471;28;20102;-82
2022/11/03 06:10:30;;;;;;;1.20;1.20;;;;;;;;;;5026402;28;20098;-81
2022/11/03 06:13:15;;;;;;;1.63;1.52;;;;;;;;;;5022053;28;20508;-82
2022/11/03 06:15:43;;;;;;;2.90;1.38;;;;;;;;;;5006321;28;20045;-81
2022/11/03 06:18:14;;;;;;;1.38;1.23;;;;;;;;;;5005663;28;20578;-82
2022/11/03 06:20:41;;;;;;;1.40;1.30;;;;;;;;;;4992733;28;20037;-81
2022/11/03 06:23:10;;;;;;;1.75;1.65;;;;;;;;;;5003639;28;20032;-83
2022/11/03 06:25:37;;;;;;;1.80;1.70;;;;;;;;;;5027420;28;20037;-84
2022/11/03 06:28:05;;;;;;;1.60;1.50;;;;;;;;;;5008053;28;20040;-90
2022/11/03 06:30:32;;;;;;;2.45;1.52;;;;;;;;;;5026213;28;20044;-89
2022/11/03 06:33:01;;;;;;;1.60;1.50;;;;;;;;;;5008417;28;20052;-89
2022/11/03 06:35:27;;;;;;;1.60;1.50;;;;;;;;;;5025916;28;20082;-89
2022/11/03 06:37:56;;;;;;;1.85;1.75;;;;;;;;;;5016009;28;20052;-91
2022/11/03 06:40:23;;;;;;;2.78;1.77;;;;;;;;;;4999533;28;20052;-87
2022/11/03 06:42:51;;;;;;;1.55;1.45;;;;;;;;;;5042015;28;20127;-89
2022/11/03 06:45:24;;;;;;;1.58;1.48;;;;;;;;;;5016100;28;20056;-86
2022/11/03 06:47:54;;;;;;;1.63;1.52;;;;;;;;;;5044895;28;20052;-88
2022/11/03 06:50:31;;;;;;;1.73;1.40;;;;;;;;;;4995585;28;20029;-88
2022/11/03 06:52:58;;;;;;;1.70;1.60;;;;;;;;;;4993998;28;20124;-86
2022/11/03 06:55:29;;;;;;;2.08;1.38;;;;;;;;;;5031711;28;20037;-85
2022/11/03 06:58:02;;;;;;;1.45;1.35;;;;;;;;;;5039780;28;20065;-85
2022/11/03 07:00:29;;;;;;;1.95;1.30;;;;;;;;;;5022100;28;20041;-90
2022/11/03 07:03:18;;;;;;;1.73;1.63;;;;;;;;;;4998864;28;20032;-88
2022/11/03 07:05:44;;;;;;;1.60;1.50;;;;;;;;;;5008176;28;20500;-89
2022/11/03 07:08:14;;;;;;;2.45;1.60;;;;;;;;;;5026351;28;20021;-91
2022/11/03 07:10:40;;;;;;;1.70;1.20;;;;;;;;;;5011879;28;20491;-89
2022/11/03 07:13:17;;;;;;;1.23;1.13;;;;;;;;;;5014487;28;20033;-88
2022/11/03 07:15:44;;;;;;;1.10;1.00;;;;;;;;;;5046550;28;20048;-89
2022/11/03 07:18:16;;;;;;;1.23;1.13;;;;;;;;;;5044856;28;20044;-90
2022/11/03 07:20:43;;;;;;;1.27;1.00;;;;;;;;;;5025200;28;20044;-84
2022/11/03 07:23:12;;;;;;;2.50;1.00;;;;;;;;;;5042058;28;20508;-91
2022/11/03 07:25:38;;;;;;;1.10;1.10;;;;;;;;;;4996938;28;20029;-84
2022/11/03 07:28:05;;;;;;;1.73;0.90;;;;;;;;;;5015989;28;20520;-84
2022/11/03 07:30:35;;;;;;;2.50;0.80;;;;;;;;;;5032451;28;20033;-80
2022/11/03 07:33:21;;;;;;;3.03;1.02;;;;;;;;;;5050334;28;20044;-82
2022/11/03 07:35:49;;;;;;;1.50;1.10;;;;;;;;;;5048121;28;20041;-86
2022/11/03 07:38:19;;;;;;;1.10;0.80;;;;;;;;;;5002121;28;20118;-85
2022/11/03 07:40:46;;;;;;;1.27;0.90;;;;;;;;;;5018839;28;20044;-83
2022/11/03 07:43:18;;;;;;;1.05;0.90;;;;;;;;;;4999387;28;20041;-80
2022/11/03 07:45:48;;;;;;;1.20;0.80;;;;;;;;;;5033071;28;20530;-80
2022/11/03 07:48:18;;;;;;;0.80;0.80;;;;;;;;;;5014061;28;20025;-81
2022/11/03 07:50:45;;;;;;;0.95;0.88;;;;;;;;;;5022994;28;20040;-80
2022/11/03 07:53:29;;;;;;;3.83;1.40;;;;;;;;;;5000056;28;20116;-80
2022/11/03 07:55:56;;;;;;;2.70;1.02;;;;;;;;;;5048227;28;20420;-80
2022/11/03 07:58:28;;;;;;;0.95;0.95;;;;;;;;;;5009948;28;20036;-83
2022/11/03 08:00:56;;;;;;;0.73;0.73;;;;;;;;;;4995891;28;20032;-83
2022/11/03 08:03:35;;;;;;;1.52;0.80;;;;;;;;;;5023693;28;20033;-83
2022/11/03 08:06:02;;;;;;;1.52;1.00;;;;;;;;;;5009794;28;20021;-84
2022/11/03 08:08:28;;;;;;;0.93;0.75;;;;;;;;;;5007625;28;20412;-84
2022/11/03 08:10:54;;;;;;;1.45;1.05;;;;;;;;;;5023822;28;20501;-82
2022/11/03 08:13:22;;;;;;;0.77;0.77;;;;;;;;;;5023741;28;20045;-81
2022/11/03 08:15:48;;;;;;;0.85;0.70;;;;;;;;;;5012941;28;20505;-82
2022/11/03 08:18:14;;;;;;;1.08;0.70;;;;;;;;;;5022395;28;20031;-81
2022/11/03 08:20:40;;;;;;;1.25;0.77;;;;;;;;;;5040959;28;20531;-80
2022/11/03 08:23:07;;;;;;;1.00;0.88;;;;;;;;;;5024290;28;20079;-82
2022/11/03 08:25:33;;;;;;;2.08;0.88;;;;;;;;;;5041091;28;20036;-83
2022/11/03 08:28:00;;;;;;;0.85;0.85;;;;;;;;;;5024576;28;20033;-84
2022/11/03 08:30:27;;;;;;;1.05;0.77;;;;;;;;;;5024188;28;20044;-85
2022/11/03 08:32:53;;;;;;;2.97;1.00;;;;;;;;;;5011291;28;20029;-83
2022/11/03 08:35:19;;;;;;;1.05;0.80;;;;;;;;;;5007588;28;20041;-87
2022/11/03 08:37:46;;;;;;;0.98;0.82;;;;;;;;;;5023559;28;20058;-84
2022/11/03 08:40:12;;;;;;;0.80;0.80;;;;;;;;;;5007328;28;20475;-82
2022/11/03 08:42:46;;;;;;;2.03;0.70;;;;;;;;;;5012088;28;20029;-83
2022/11/03 08:45:12;;;;;;;1.30;1.17;;;;;;;;;;5004531;28;20059;-83
2022/11/03 08:47:38;;;;;;;2.58;0.82;;;;;;;;;;4996034;28;20032;-84
2022/11/03 08:50:05;;;;;;;3.78;0.70;;;;;;;;;;5041513;28;20067;-81
2022/11/03 08:52:31;;;;;;;0.73;0.70;;;;;;;;;;5022568;28;20058;-85
2022/11/03 08:54:58;;;;;;;1.35;0.90;;;;;;;;;;4976340;28;20046;-86
2022/11/03 08:57:24;;;;;;;1.10;0.95;;;;;;;;;;4992954;28;20097;-82
2022/11/03 08:59:51;;;;;;;3.45;0.90;;;;;;;;;;5001270;28;20117;-83
2022/11/03 09:02:18;;;;;;;0.80;0.73;;;;;;;;;;4986793;28;20068;-83
2022/11/03 09:04:44;;;;;;;0.95;0.80;;;;;;;;;;5002648;28;20088;-81
2022/11/03 09:07:10;;;;;;;0.68;0.65;;;;;;;;;;4999484;28;20032;-79
2022/11/03 09:09:37;;;;;;;1.17;0.70;;;;;;;;;;5001100;28;20033;-80
2022/11/03 09:12:03;;;;;;;2.10;1.00;;;;;;;;;;4999845;28;20038;-81
2022/11/03 09:14:29;;;;;;;1.30;0.68;;;;;;;;;;5001674;28;20092;-81
2022/11/03 09:16:55;;;;;;;0.70;0.70;;;;;;;;;;5002285;28;20038;-80
2022/11/03 09:19:22;;;;;;;2.83;0.80;;;;;;;;;;5004508;28;20037;-81
2022/11/03 09:21:48;;;;;;;1.10;0.75;;;;;;;;;;5000447;28;20548;-77
2022/11/03 09:24:14;;;;;;;1.75;0.70;;;;;;;;;;4999888;28;20144;-77
2022/11/03 09:26:40;;;;;;;0.80;0.50;;;;;;;;;;5002220;28;20030;-79
2022/11/03 09:29:07;;;;;;;1.55;0.85;;;;;;;;;;4988929;28;20036;-80
2022/11/03 09:31:33;;;;;;;1.00;0.80;;;;;;;;;;5001726;28;20496;-80
2022/11/03 09:33:59;;;;;;;1.10;0.90;;;;;;;;;;5001422;28;20528;-81
2022/11/03 09:36:25;;;;;;;0.70;0.70;;;;;;;;;;4999719;28;20037;-79
2022/11/03 09:38:52;;;;;;;1.13;0.95;;;;;;;;;;5002035;28;20025;-79
2022/11/03 09:41:18;;;;;;;3.92;0.90;;;;;;;;;;5018278;28;20026;-78
2022/11/03 09:43:44;;;;;;;1.45;0.98;;;;;;;;;;5000204;28;20030;-78
2022/11/03 09:46:11;;;;;;;0.98;0.82;;;;;;;;;;4985284;28;20514;-80
2022/11/03 09:48:38;;;;;;;0.73;0.70;;;;;;;;;;4986916;28;20026;-78
2022/11/03 09:51:04;;;;;;;1.70;0.85;;;;;;;;;;4999403;28;20034;-77
2022/11/03 09:53:30;;;;;;;0.88;0.88;;;;;;;;;;5006202;28;20046;-80
2022/11/03 09:55:57;;;;;;;0.80;0.80;;;;;;;;;;5003832;28;20505;-81
2022/11/03 09:58:23;;;;;;;1.38;0.80;;;;;;;;;;5022780;28;20558;-80
2022/11/03 10:00:49;;;;;;;1.63;0.98;;;;;;;;;;5003293;28;20565;-78
2022/11/03 10:03:16;;;;;;;2.15;0.90;;;;;;;;;;5022272;28;20048;-80
2022/11/03 10:05:47;;;;;;;1.15;0.63;;;;;;;;;;5007332;28;20034;-81
2022/11/03 10:08:22;;;;;;;1.45;0.90;;;;;;;;;;5007079;28;20057;-80
2022/11/03 10:10:49;;;;;;;0.95;0.70;;;;;;;;;;4995228;28;20386;-78
2022/11/03 10:13:21;;;;;;;1.95;0.88;;;;;;;;;;5022687;28;20504;-77
2022/11/03 10:15:48;;;;;;;1.20;1.00;;;;;;;;;;5023538;28;20475;-78
2022/11/03 10:18:14;;;;;;;2.80;1.15;;;;;;;;;;5023425;28;20040;-79
2022/11/03 10:20:40;;;;;;;1.30;1.00;;;;;;;;;;5025392;28;20396;-78
2022/11/03 10:23:07;;;;;;;1.75;1.00;;;;;;;;;;5021786;28;20443;-77
2022/11/03 10:25:44;;;;;;;2.00;1.42;;;;;;;;;;5023304;28;20558;-80
2022/11/03 10:28:15;;;;;;;1.42;1.33;;;;;;;;;;5007770;28;20029;-79
2022/11/03 10:30:48;;;;;;;3.10;1.83;;;;;;;;;;5011032;28;20034;-78
2022/11/03 10:33:44;;;;;;;3.55;1.80;;;;;;;;;;4993912;28;20061;-78
2022/11/03 10:36:16;;;;;;;2.40;2.20;;;;;;;;;;5010118;28;20037;-79
2022/11/03 10:38:43;;;;;;;3.85;1.85;;;;;;;;;;5022775;28;20079;-79
2022/11/03 10:41:11;;;;;;;2.05;1.80;;;;;;;;;;5022301;28;20121;-78
2022/11/03 10:43:38;;;;;;;1.83;1.73;;;;;;;;;;5023217;28;20057;-77
2022/11/03 10:46:11;;;;;;;2.90;2.22;;;;;;;;;;5021063;28;20034;-79
2022/11/03 10:48:38;;;;;;;1.90;1.80;;;;;;;;;;5024062;28;20029;-77
2022/11/03 10:51:04;;;;;;;4.35;2.30;;;;;;;;;;5024067;28;20053;-77
2022/11/03 10:53:31;;;;;;;4.22;1.80;;;;;;;;;;5026253;28;20468;-79
2022/11/03 10:55:57;;;;;;;3.25;2.30;;;;;;;;;;5026216;28;20029;-77
2022/11/03 10:58:24;;;;;;;1.83;1.73;;;;;;;;;;5044624;28;20043;-77
2022/11/03 11:00:50;;;;;;;2.13;1.80;;;;;;;;;;5043436;28;20036;-77
2022/11/03 11:03:16;;;;;;;2.10;1.90;;;;;;;;;;5026088;28;20131;-77
2022/11/03 11:05:46;;;;;;;4.85;1.90;;;;;;;;;;5045171;28;20021;-78
2022/11/03 11:08:13;;;;;;;4.20;2.10;;;;;;;;;;5041190;28;20073;-78
2022/11/03 11:10:43;;;;;;;3.38;1.92;;;;;;;;;;5026064;28;20638;-77
2022/11/03 11:13:21;;;;;;;1.70;1.60;;;;;;;;;;5045530;28;20033;-78
2022/11/03 11:15:47;;;;;;;2.03;1.42;;;;;;;;;;5024060;28;20037;-78
2022/11/03 11:18:29;;;;;;;3.13;2.00;;;;;;;;;;5041457;28;20025;-77
2022/11/03 11:21:02;;;;;;;3.58;1.83;;;;;;;;;;5044022;28;21012;-76
2022/11/03 11:23:29;;;;;;;3.25;1.55;;;;;;;;;;5010876;28;20032;-77
2022/11/03 11:26:14;;;;;;;2.60;1.30;;;;;;;;;;5024192;28;20025;-77
2022/11/03 11:28:41;;;;;;;1.60;1.50;;;;;;;;;;5028743;28;20033;-78
2022/11/03 11:31:26;;;;;;;3.25;1.92;;;;;;;;;;5023886;28;20039;-80
2022/11/03 11:34:22;;;;;;;4.28;2.25;;;;;;;;;;5024896;28;20029;-77
2022/11/03 11:36:48;;;;;;;1.93;1.53;;;;;;;;;;5025577;28;20037;-78
2022/11/03 11:39:24;;;;;;;1.88;1.50;;;;;;;;;;5024142;28;20292;-80
2022/11/03 11:42:10;;;;;;;1.50;1.40;;;;;;;;;;5042952;28;20032;-78
2022/11/03 11:44:46;;;;;;;2.38;1.50;;;;;;;;;;5005232;28;20059;-77
2022/11/03 11:47:31;;;;;;;5.22;1.20;;;;;;;;;;5041688;28;20055;-76
2022/11/03 11:50:08;;;;;;;4.95;1.20;;;;;;;;;;5042320;28;20102;-79
2022/11/03 11:52:59;;;;;;;2.83;1.00;;;;;;;;;;5041754;28;20045;-78
2022/11/03 11:55:38;;;;;;;3.80;1.05;;;;;;;;;;5028956;28;20504;-77
2022/11/03 11:58:06;;;;;;;4.95;1.40;;;;;;;;;;5025293;28;20551;-79
2022/11/03 12:00:33;;;;;;;3.92;1.08;;;;;;;;;;5010798;28;20115;-79
2022/11/03 12:03:01;;;;;;;3.42;0.98;;;;;;;;;;5040802;28;20201;-78
2022/11/03 12:05:29;;;;;;;1.58;1.10;;;;;;;;;;5041002;28;20036;-77
2022/11/03 12:07:56;;;;;;;2.15;1.33;;;;;;;;;;5039401;28;20029;-77
2022/11/03 12:10:26;;;;;;;3.35;1.20;;;;;;;;;;5041427;28;20451;-78
2022/11/03 12:12:52;;;;;;;1.55;1.10;;;;;;;;;;5043843;28;20135;-78
2022/11/03 12:15:37;;;;;;;1.95;1.10;;;;;;;;;;5022528;28;20036;-77
2022/11/03 12:18:23;;;;;;;1.45;1.00;;;;;;;;;;5024199;28;20033;-77
2022/11/03 12:20:49;;;;;;;;;;;;;;;;;;5042678;28;20428;-77
2022/11/03 12:23:32;;;;;;;1.27;0.98;;;;;;;;;;5009162;28;19913;-78
2022/11/03 12:25:58;;;;;;;4.05;1.52;;;;;;;;;;5042134;28;20116;-78
2022/11/03 12:28:36;;;;;;;1.67;1.23;;;;;;;;;;5043438;28;20040;-79
2022/11/03 12:31:03;;;;;;;1.65;1.17;;;;;;;;;;5023631;28;20033;-78
2022/11/03 12:33:29;;;;;;;1.90;1.27;;;;;;;;;;5012019;28;20029;-78
2022/11/03 12:35:56;;;;;;;1.27;1.10;;;;;;;;;;5040291;28;20086;-77
2022/11/03 12:38:24;;;;;;;1.90;1.30;;;;;;;;;;5040737;28;20029;-77
2022/11/03 12:40:52;;;;;;;2.13;1.25;;;;;;;;;;5040145;28;20036;-78
2022/11/03 12:43:18;;;;;;;2.15;1.00;;;;;;;;;;5024560;28;20447;-77
2022/11/03 12:45:45;;;;;;;6.63;1.52;;;;;;;;;;5043613;28;20064;-78
2022/11/03 12:48:11;;;;;;;1.73;1.10;;;;;;;;;;5040176;28;20033;-76
2022/11/03 12:50:38;;;;;;;2.58;1.23;;;;;;;;;;5041777;28;20052;-77
2022/11/03 12:53:05;;;;;;;1.55;1.00;;;;;;;;;;5037864;28;20501;-77
2022/11/03 12:55:32;;;;;;;2.33;1.20;;;;;;;;;;5022966;28;20182;-78
2022/11/03 12:57:58;;;;;;;1.30;1.20;;;;;;;;;;5024633;28;20032;-76
2022/11/03 13:00:25;;;;;;;1.23;1.13;;;;;;;;;;5027324;28;20047;-76
2022/11/03 13:02:51;;;;;;;3.42;1.55;;;;;;;;;;5025688;28;20511;-77
2022/11/03 13:05:18;;;;;;;2.78;1.55;;;;;;;;;;5004291;28;20026;-76
2022/11/03 13:07:44;;;;;;;1.70;1.58;;;;;;;;;;5004591;28;20569;-78
2022/11/03 13:10:10;;;;;;;2.03;1.00;;;;;;;;;;5027133;28;20496;-76
2022/11/03 13:12:40;;;;;;;2.17;0.98;;;;;;;;;;5010466;28;20192;-76
2022/11/03 13:15:07;;;;;;;1.50;1.17;;;;;;;;;;5040409;28;20408;-77
2022/11/03 13:17:33;;;;;;;1.33;1.23;;;;;;;;;;5027729;28;20033;-79
2022/11/03 13:19:59;;;;;;;52.53;4.00;;;9.40;63.60;;;;;;5011555;28;20029;-86
2022/11/03 13:22:25;;;;;;;1.80;1.00;;;9.90;67.20;;;;;;5022746;28;20094;-77
2022/11/03 13:24:51;;;;;;;2.97;1.30;;;9.70;67.60;;;;;;5039567;28;20481;-77
2022/11/03 13:27:17;;;;;;;2.58;1.20;;;9.70;68.20;;;;;;5040331;28;20033;-77
2022/11/03 13:29:43;;;;;;;2.33;1.27;;;9.60;68.60;;;;;;5021974;28;20041;-78
2022/11/03 13:32:09;;;;;;;1.42;1.08;;;9.60;67.70;;;;;;5010593;28;20442;-78
2022/11/03 13:34:35;;;;;;;2.20;1.15;;;9.60;66.80;;;;;;5022486;28;20037;-76
2022/11/03 13:37:01;;;;;;;2.90;1.27;;;9.60;66.00;;;;;;5023774;28;20034;-78
2022/11/03 13:39:27;;;;;;;2.33;1.00;;;9.60;65.50;;;;;;5021121;28;20032;-79
2022/11/03 13:41:53;;;;;;;1.48;1.02;;;9.60;65.20;;;;;;5028333;28;20264;-77
2022/11/03 13:44:18;;;;;;;1.58;1.00;;;9.60;65.10;;;;;;5045306;28;20036;-77
2022/11/03 13:46:44;;;;;;;1.73;1.10;;;9.60;64.70;;;;;;5046433;28;20029;-79
2022/11/03 13:49:10;;;;;;;3.28;1.05;;;9.60;64.60;;;;;;5025955;28;20515;-79
2022/11/03 13:51:36;;;;;;;2.90;1.58;;;9.70;64.60;;;;;;5044510;28;20074;-78
2022/11/03 13:54:02;;;;;;;3.45;1.10;;;9.60;64.50;;;;;;5026509;28;20053;-79
2022/11/03 13:56:28;;;;;;;1.48;1.10;;;9.60;64.50;;;;;;5014972;28;20029;-78
2022/11/03 13:58:54;;;;;;;1.30;0.75;;;9.60;64.30;;;;;;5045366;28;20550;-79
2022/11/03 14:01:20;;;;;;;1.67;1.30;;;9.60;64.20;;;;;;5043445;28;20036;-79
2022/11/03 14:03:47;;;;;;;2.85;1.50;;;9.60;64.40;;;;;;5025942;28;20040;-79
2022/11/03 14:06:13;;;;;;;2.70;1.23;;;9.60;64.20;;;;;;5030928;28;20090;-78
2022/11/03 14:08:39;;;;;;;3.83;1.15;;;9.60;64.20;;;;;;5042184;28;20068;-78
2022/11/03 14:13:49;;;;;;;2.05;1.25;;;9.50;64.00;;;;;;5014419;28;20446;-78
2022/11/03 14:16:15;;;;;;;4.10;1.50;;;9.60;63.90;;;;;;5043731;28;20030;-78
2022/11/03 14:18:41;;;;;;;3.53;1.40;;;9.60;63.60;;;;;;5026385;28;20040;-80
2022/11/03 14:21:07;;;;;;;3.63;1.52;;;9.60;63.50;;;;;;5043444;28;20036;-79
2022/11/03 14:23:33;;;;;;;1.83;1.25;;;9.60;63.40;;;;;;5028723;28;20049;-80
2022/11/03 14:25:59;;;;;;;1.42;1.30;;;9.50;63.30;;;;;;5045569;28;20033;-80
2022/11/03 14:28:25;;;;;;;2.25;1.50;;;9.50;63.30;;;;;;5025961;28;20029;-79
2022/11/03 14:30:51;;;;;;;2.58;1.50;;;9.50;63.30;;;;;;5042722;28;20044;-77
2022/11/03 14:33:17;;;;;;;3.03;1.52;;;9.50;63.20;;;;;;5043266;28;20048;-81
2022/11/03 14:35:43;;;;;;;2.65;1.58;;;9.50;63.20;;;;;;5030258;28;20041;-78
2022/11/03 14:38:09;;;;;;;1.35;1.25;;;9.50;63.20;;;;;;5042331;28;20040;-77
2022/11/03 14:43:19;;;;;;;3.13;1.88;;;9.50;63.10;;;;;;5026274;28;20110;-80
2022/11/03 14:45:45;;;;;;;2.35;1.63;;;9.50;63.10;;;;;;5026129;28;20028;-77
2022/11/03 14:48:11;;;;;;;4.15;1.92;;;9.50;63.30;;;;;;5043185;28;20370;-78
2022/11/03 14:50:37;;;;;;;3.60;1.50;;;9.50;63.70;;;;;;5044012;28;20040;-77
2022/11/03 14:53:03;;;;;;;4.40;1.65;;;9.50;63.90;;;;;;5029152;28;20534;-77
2022/11/03 14:55:28;;;;;;;1.52;1.42;;;9.50;64.30;;;;;;5042897;28;20598;-78
2022/11/03 14:57:54;;;;;;;4.47;1.88;;;9.50;64.90;;;;;;5027088;28;20408;-78
2022/11/03 15:00:20;;;;;;;2.10;1.60;;;9.50;65.30;;;;;;4996335;28;20089;-80